Time;durP1;ratioP1;P1;durP2;ratioP2;P2;SDS_P1;SDS_P2;PMS_P1;PMS_P2;Temp;Humidity;BMP_temperature;BMP_pressure;BME280_temperature;BME280_humidity;BME280_pressure;Samples;Min_cycle;Max_cycle;Signal;HPM_P1;HPM_P2
2023/07/23 00:01:05;;;;;;;9.80;7.70;;;;;;;11.35;92.28;98840.89;135661;1274;22522;-83
2023/07/23 00:04:22;;;;;;;8.80;7.20;;;;;;;11.31;92.61;98838.93;135720;1274;22523;-82
2023/07/23 00:07:24;;;;;;;7.90;7.10;;;;;;;11.24;92.54;98834.30;135636;1274;22523;-83
2023/07/23 00:10:27;;;;;;;9.60;7.00;;;;;;;11.18;92.91;98835.30;135698;1274;22561;-82
2023/07/23 00:13:29;;;;;;;9.30;7.00;;;;;;;11.15;93.14;98839.10;135699;1274;22578;-81
2023/07/23 00:16:31;;;;;;;9.60;7.30;;;;;;;11.12;93.22;98835.59;135711;1274;25895;-81
2023/07/23 00:19:34;;;;;;;8.00;7.20;;;;;;;11.07;93.12;98836.06;135766;1274;22557;-82
2023/07/23 00:22:38;;;;;;;9.90;7.60;;;;;;;11.00;93.37;98832.17;135685;1274;22539;-82
2023/07/23 00:25:42;;;;;;;9.20;7.40;;;;;;;10.95;93.55;98833.50;135645;1274;22531;-82
2023/07/23 00:28:46;;;;;;;10.70;7.20;;;;;;;10.93;93.96;98831.40;135657;1275;22533;-83
2023/07/23 00:31:49;;;;;;;9.40;7.40;;;;;;;10.93;94.61;98829.14;135695;1274;22626;-81
2023/07/23 00:34:51;;;;;;;8.50;7.50;;;;;;;10.92;94.40;98832.26;135693;1275;22540;-81
2023/07/23 00:37:54;;;;;;;7.60;6.90;;;;;;;10.90;94.39;98833.29;135662;1274;22554;-81
2023/07/23 00:40:56;;;;;;;10.70;7.60;;;;;;;10.86;94.12;98833.59;135567;1274;22566;-82
2023/07/23 00:44:02;;;;;;;14.90;7.60;;;;;;;10.83;94.44;98832.70;135646;1274;22530;-82
2023/07/23 00:47:05;;;;;;;10.80;7.30;;;;;;;10.81;94.46;98837.71;135675;1274;22643;-80
2023/07/23 00:50:08;;;;;;;9.40;7.40;;;;;;;10.77;94.62;98835.92;135599;1275;22586;-81
2023/07/23 00:53:10;;;;;;;8.20;7.00;;;;;;;10.74;94.91;98830.15;135634;1274;22541;-81
2023/07/23 00:56:13;;;;;;;8.20;7.40;;;;;;;10.72;95.18;98836.40;135562;1275;22547;-82
2023/07/23 00:59:15;;;;;;;13.60;7.30;;;;;;;10.69;95.12;98824.54;135617;1274;22531;-82
2023/07/23 01:02:18;;;;;;;9.20;7.20;;;;;;;10.67;94.87;98825.02;135658;1274;22551;-82
2023/07/23 01:05:20;;;;;;;11.70;8.00;;;;;;;10.65;95.39;98826.39;135588;1275;22521;-82
2023/07/23 01:08:23;;;;;;;8.80;7.10;;;;;;;10.62;95.11;98823.23;135590;1274;24288;-81
2023/07/23 01:11:25;;;;;;;13.70;7.00;;;;;;;10.58;95.16;98824.23;135559;1274;22537;-82
2023/07/23 01:14:28;;;;;;;8.80;7.20;;;;;;;10.56;97.37;98822.98;135632;1274;22530;-81
2023/07/23 01:17:30;;;;;;;12.70;7.80;;;;;;;10.59;99.53;98818.85;135591;1275;25227;-81
2023/07/23 01:20:34;;;;;;;11.70;7.20;;;;;;;10.63;100.00;98817.84;135668;1275;24359;-82
2023/07/23 01:23:36;;;;;;;9.30;6.60;;;;;;;10.64;99.93;98812.46;135672;1251;21755;-81
2023/07/23 01:26:40;;;;;;;9.70;6.80;;;;;;;10.60;98.55;98808.08;135667;1274;22541;-81
2023/07/23 01:29:43;;;;;;;9.90;6.50;;;;;;;10.58;99.64;98804.04;135659;1275;24197;-82
2023/07/23 01:32:45;;;;;;;15.90;7.20;;;;;;;10.60;100.00;98803.55;135656;1274;22644;-82
2023/07/23 01:35:48;;;;;;;7.70;6.60;;;;;;;10.59;100.00;98796.92;135681;1274;22565;-82
2023/07/23 01:38:50;;;;;;;7.00;6.30;;;;;;;10.57;100.00;98799.15;135651;1274;25404;-82
2023/07/23 01:41:52;;;;;;;10.30;7.30;;;;;;;10.54;100.00;98801.56;135874;1274;22604;-81
2023/07/23 01:44:55;;;;;;;8.40;6.50;;;;;;;10.51;100.00;98803.09;136923;1274;22565;-80
2023/07/23 01:47:57;;;;;;;7.00;6.30;;;;;;;10.46;100.00;98804.27;137472;1275;24222;-80
2023/07/23 01:51:00;;;;;;;9.70;6.70;;;;;;;10.41;100.00;98809.23;137455;1274;22540;-80
2023/07/23 01:54:03;;;;;;;6.80;6.10;;;;;;;10.38;100.00;98809.52;137381;1275;22570;-80
2023/07/23 01:57:05;;;;;;;7.20;6.50;;;;;;;10.37;100.00;98809.52;137261;1274;22543;-80
2023/07/23 02:00:08;;;;;;;7.00;6.40;;;;;;;10.38;100.00;98809.71;137198;1274;22547;-80
2023/07/23 02:03:11;;;;;;;6.70;6.00;;;;;;;10.38;99.78;98810.73;136150;1274;22532;-80
2023/07/23 02:06:13;;;;;;;7.90;5.90;;;;;;;10.35;98.84;98815.05;135590;1274;22537;-80
2023/07/23 02:09:16;;;;;;;9.30;6.10;;;;;;;10.33;99.15;98816.77;135578;1274;22473;-80
2023/07/23 02:12:18;;;;;;;6.90;5.90;;;;;;;10.31;99.08;98815.18;135560;1275;22526;-80
2023/07/23 02:15:21;;;;;;;7.20;6.50;;;;;;;10.26;98.49;98814.77;135586;1274;24264;-80
2023/07/23 02:18:23;;;;;;;10.00;6.20;;;;;;;10.21;98.42;98815.40;135645;1274;22603;-80
2023/07/23 02:21:26;;;;;;;7.50;6.00;;;;;;;10.19;99.04;98818.48;135592;1275;22617;-82
2023/07/23 02:24:28;;;;;;;6.40;5.80;;;;;;;10.18;99.53;98817.07;135604;1274;22541;-81
2023/07/23 02:27:30;;;;;;;8.20;6.20;;;;;;;10.15;99.62;98817.03;135586;1274;22570;-82
2023/07/23 02:30:33;;;;;;;8.10;6.10;;;;;;;10.12;99.60;98815.27;135658;1275;22490;-82
2023/07/23 02:33:35;;;;;;;7.50;6.70;;;;;;;10.09;99.44;98815.55;135697;1274;22582;-82
2023/07/23 02:36:38;;;;;;;6.80;6.10;;;;;;;10.06;99.65;98809.42;135670;1274;22540;-81
2023/07/23 02:39:41;;;;;;;10.50;7.00;;;;;;;10.02;100.00;98805.20;135677;1275;22554;-82
2023/07/23 02:42:43;;;;;;;8.40;6.60;;;;;;;9.99;100.00;98804.64;135693;1274;22553;-81
2023/07/23 02:45:46;;;;;;;8.10;5.90;;;;;;;9.95;100.00;98803.21;135656;1274;22561;-83
2023/07/23 02:48:48;;;;;;;7.40;6.70;;;;;;;9.96;100.00;98800.96;135787;1274;22557;-81
2023/07/23 02:51:50;;;;;;;6.90;6.20;;;;;;;9.97;100.00;98801.32;135685;1274;22630;-84
2023/07/23 02:54:53;;;;;;;7.70;6.50;;;;;;;9.97;100.00;98804.63;135670;1274;22534;-82
2023/07/23 02:57:55;;;;;;;7.40;6.70;;;;;;;9.98;100.00;98802.55;135689;1275;22541;-82
2023/07/23 03:01:00;;;;;;;7.30;6.20;;;;;;;10.00;100.00;98806.57;135675;1275;22544;-82
2023/07/23 03:04:02;;;;;;;;;;;;;;;10.01;100.00;98808.51;135700;1274;22518;-82
2023/07/23 03:07:05;;;;;;;7.00;5.70;;;;;;;9.98;100.00;98801.67;135685;1275;25236;-83
2023/07/23 03:10:07;;;;;;;6.70;6.20;;;;;;;9.99;100.00;98804.30;135677;1275;22530;-81
2023/07/23 03:13:10;;;;;;;9.10;6.50;;;;;;;10.03;100.00;98801.74;135614;1274;23148;-83
2023/07/23 03:16:13;;;;;;;8.10;6.30;;;;;;;10.06;100.00;98799.19;135647;1275;22537;-83
2023/07/23 03:19:15;;;;;;;7.00;6.30;;;;;;;10.08;100.00;98798.16;135610;1275;22558;-81
2023/07/23 03:22:18;;;;;;;6.40;5.70;;;;;;;10.09;100.00;98796.62;135601;1275;23054;-82
2023/07/23 03:25:20;;;;;;;6.40;5.80;;;;;;;10.10;100.00;98795.23;135682;1274;22579;-81
2023/07/23 03:28:23;;;;;;;10.20;5.70;;;;;;;10.10;100.00;98795.23;135680;1275;22527;-83
2023/07/23 03:31:25;;;;;;;7.40;5.60;;;;;;;10.11;100.00;98795.94;135623;1274;24363;-83
2023/07/23 03:34:27;;;;;;;8.80;6.10;;;;;;;10.11;99.85;98799.07;135705;1275;22536;-82
2023/07/23 03:37:30;;;;;;;6.90;5.60;;;;;;;10.12;99.04;98795.08;135642;1275;22553;-82
2023/07/23 03:40:32;;;;;;;6.00;5.50;;;;;;;10.17;99.78;98796.55;135690;1274;22540;-82
2023/07/23 03:43:35;;;;;;;13.70;6.60;;;;;;;10.25;100.00;98795.45;135692;1275;25266;-82
2023/07/23 03:46:37;;;;;;;7.40;6.00;;;;;;;10.35;100.00;98791.56;135632;1274;22538;-83
2023/07/23 03:49:39;;;;;;;7.60;6.20;;;;;;;10.42;100.00;98789.08;135708;1274;23413;-81
2023/07/23 03:52:42;;;;;;;12.20;6.50;;;;;;;10.52;100.00;98790.41;135612;1263;23619;-81
2023/07/23 03:55:44;;;;;;;6.90;6.20;;;;;;;10.65;100.00;98793.16;135644;1274;22537;-82
2023/07/23 03:58:47;;;;;;;9.10;6.50;;;;;;;10.78;100.00;98790.52;135714;1274;22541;-82
2023/07/23 04:01:49;;;;;;;8.20;6.10;;;;;;;10.91;100.00;98792.20;135650;1275;22537;-82
2023/07/23 04:04:52;;;;;;;7.10;6.00;;;;;;;11.02;99.81;98791.09;135700;1274;22565;-81
2023/07/23 04:07:56;;;;;;;7.00;5.90;;;;;;;11.05;97.22;98789.73;135716;1275;22647;-82
2023/07/23 04:11:01;;;;;;;6.50;5.50;;;;;;;11.08;95.81;98789.23;135707;1275;22553;-82
2023/07/23 04:14:03;;;;;;;;;;;;;;;11.16;95.76;98793.30;135761;1271;22524;-82
2023/07/23 04:17:08;;;;;;;6.40;5.40;;;;;;;11.25;96.35;98792.35;135720;1274;22522;-80
2023/07/23 04:20:10;;;;;;;;;;;;;;;11.39;97.06;98796.31;135655;1274;22618;-82
2023/07/23 04:23:13;;;;;;;7.00;5.80;;;;;;;11.57;99.19;98792.95;135616;1275;25399;-82
2023/07/23 04:26:15;;;;;;;7.90;6.20;;;;;;;11.80;100.00;98794.00;135703;1274;22637;-83
2023/07/23 04:29:17;;;;;;;10.20;7.40;;;;;;;12.77;100.00;98792.84;135739;1274;22482;-82
2023/07/23 04:32:20;;;;;;;6.90;6.30;;;;;;;14.81;100.00;98791.89;135694;1274;25253;-83
2023/07/23 04:35:22;;;;;;;10.50;6.60;;;;;;;16.32;100.00;98795.73;135745;1275;25826;-81
2023/07/23 04:38:25;;;;;;;12.80;5.40;;;;;;;17.43;100.00;98796.34;135737;1275;22539;-84
2023/07/23 04:41:27;;;;;;;6.00;5.40;;;;;;;18.18;100.00;98792.93;135746;1275;22541;-82
2023/07/23 04:44:30;;;;;;;6.40;5.80;;;;;;;18.55;100.00;98793.98;135680;1275;22592;-84
2023/07/23 04:47:32;;;;;;;5.90;5.30;;;;;;;18.92;100.00;98788.95;135707;1253;22552;-83
2023/07/23 04:50:35;;;;;;;5.50;4.80;;;;;;;19.35;100.00;98787.98;135703;1274;22493;-84
2023/07/23 04:53:37;;;;;;;11.90;5.10;;;;;;;19.75;100.00;98787.50;135756;1274;22536;-83
2023/07/23 04:56:40;;;;;;;13.40;5.70;;;;;;;20.11;100.00;98787.30;135740;1275;22557;-81
2023/07/23 04:59:42;;;;;;;7.50;5.50;;;;;;;20.39;100.00;98793.41;135592;1275;22544;-83
2023/07/23 05:02:45;;;;;;;7.30;5.20;;;;;;;20.58;100.00;98791.64;135578;1275;24885;-82
2023/07/23 05:05:47;;;;;;;7.90;4.90;;;;;;;20.88;100.00;98795.34;135604;1275;24203;-82
2023/07/23 05:08:50;;;;;;;6.30;4.90;;;;;;;21.18;100.00;98793.90;135611;1275;22577;-83
2023/07/23 05:11:54;;;;;;;6.20;5.40;;;;;;;21.05;100.00;98789.86;135945;1263;22527;-83
2023/07/23 05:14:56;;;;;;;5.80;4.70;;;;;;;21.07;100.00;98789.48;136539;1270;22561;-83
2023/07/23 05:17:59;;;;;;;6.80;5.20;;;;;;;21.10;69.59;98783.70;136528;1275;22640;-82
2023/07/23 05:21:01;;;;;;;6.70;4.70;;;;;;;21.06;62.41;98791.98;136530;1274;22542;-82
2023/07/23 05:24:04;;;;;;;5.70;5.10;;;;;;;21.13;62.94;98794.41;136545;1275;22542;-80
2023/07/23 05:27:06;;;;;;;5.30;4.60;;;;;;;21.37;62.91;98795.25;136351;1275;22575;-81
2023/07/23 05:30:08;;;;;;;5.50;4.60;;;;;;;21.74;62.33;98785.02;135833;1274;22558;-81
2023/07/23 05:33:13;;;;;;;8.60;4.90;;;;;;;22.15;61.66;98788.05;135861;1274;22527;-84
2023/07/23 05:36:16;;;;;;;5.30;4.40;;;;;;;22.49;60.56;98783.80;135954;1275;22527;-84
2023/07/23 05:39:18;;;;;;;4.70;4.20;;;;;;;22.78;59.56;98779.34;135721;1275;22520;-83
2023/07/23 05:42:21;;;;;;;5.70;4.30;;;;;;;22.99;58.59;98781.02;135737;1274;25329;-82
2023/07/23 05:45:23;;;;;;;6.60;4.40;;;;;;;23.19;57.96;98781.48;135635;1274;22655;-80
2023/07/23 05:48:26;;;;;;;7.40;4.40;;;;;;;23.36;57.02;98781.70;135670;1274;22565;-84
2023/07/23 05:51:28;;;;;;;7.30;4.40;;;;;;;23.51;55.84;98785.86;135696;1275;22586;-87
2023/07/23 05:54:30;;;;;;;7.30;4.80;;;;;;;23.63;55.05;98785.96;135741;1275;22538;-84
2023/07/23 05:57:33;;;;;;;6.40;4.70;;;;;;;23.80;54.44;98784.66;135773;1274;22585;-84
2023/07/23 06:00:35;;;;;;;4.80;4.40;;;;;;;23.91;53.39;98781.88;135721;1274;22526;-84
2023/07/23 06:03:40;;;;;;;10.60;4.70;;;;;;;24.05;53.24;98780.19;135757;1275;22532;-84
2023/07/23 06:06:42;;;;;;;7.00;4.60;;;;;;;24.07;52.45;98774.98;135712;1274;22593;-84
2023/07/23 06:09:45;;;;;;;4.80;4.20;;;;;;;24.10;52.03;98768.25;135695;1275;22526;-83
2023/07/23 06:12:47;;;;;;;10.00;4.40;;;;;;;23.86;52.14;98762.90;135729;1274;22554;-83
2023/07/23 06:15:49;;;;;;;5.10;4.20;;;;;;;23.69;52.71;98762.77;135713;1274;22537;-83
2023/07/23 06:18:52;;;;;;;8.80;4.40;;;;;;;23.59;52.68;98763.36;135686;1274;22534;-85
2023/07/23 06:21:54;;;;;;;7.20;4.40;;;;;;;23.54;52.69;98759.11;135730;1274;22618;-86
2023/07/23 06:24:57;;;;;;;7.00;4.70;;;;;;;23.53;52.80;98757.40;135706;1275;22490;-85
2023/07/23 06:27:59;;;;;;;7.10;4.70;;;;;;;23.48;53.27;98759.17;135783;1274;22646;-83
2023/07/23 06:31:02;;;;;;;5.20;4.20;;;;;;;23.47;53.55;98761.33;135742;1275;24291;-83
2023/07/23 06:34:05;;;;;;;5.70;4.40;;;;;;;23.54;53.88;98764.83;135844;1274;22586;-85
2023/07/23 06:37:07;;;;;;;6.80;4.80;;;;;;;23.75;53.69;98760.73;135835;1271;22537;-84
2023/07/23 06:40:09;;;;;;;5.10;4.60;;;;;;;23.93;53.55;98760.84;135805;1275;22548;-84
2023/07/23 06:43:12;;;;;;;10.30;4.50;;;;;;;24.13;53.31;98758.70;135746;1275;22595;-82
2023/07/23 06:46:18;;;;;;;10.00;4.70;;;;;;;24.14;52.98;98758.65;135777;1274;22558;-84
2023/07/23 06:49:22;;;;;;;5.50;4.80;;;;;;;24.17;52.99;98754.80;135722;1275;22565;-84
2023/07/23 06:52:24;;;;;;;;;;;;;;;24.09;52.86;98752.84;135664;1274;24193;-83
2023/07/23 06:55:27;;;;;;;5.70;4.90;;;;;;;24.04;53.45;98753.25;135657;1274;22541;-83
2023/07/23 06:58:29;;;;;;;4.50;4.10;;;;;;;24.15;53.58;98749.38;135757;1275;22540;-84
2023/07/23 07:01:31;;;;;;;6.50;5.10;;;;;;;24.20;53.67;98748.10;135656;1274;23317;-84
2023/07/23 07:04:34;;;;;;;5.00;4.60;;;;;;;24.26;53.74;98743.91;135652;1274;22553;-83
2023/07/23 07:07:37;;;;;;;5.40;4.30;;;;;;;24.22;54.00;98741.98;135719;1275;22546;-85
2023/07/23 07:10:40;;;;;;;;;;;;;;;24.20;54.10;98742.25;135676;1275;22975;-84
2023/07/23 07:13:42;;;;;;;6.30;4.60;;;;;;;24.07;54.26;98736.75;135724;1274;22603;-83
2023/07/23 07:16:45;;;;;;;4.50;4.10;;;;;;;23.82;54.45;98735.03;135703;1275;22554;-83
2023/07/23 07:19:47;;;;;;;7.60;4.50;;;;;;;23.75;54.70;98733.74;135733;1275;22593;-84
2023/07/23 07:22:50;;;;;;;5.90;4.50;;;;;;;23.78;54.32;98730.04;135713;1274;22556;-84
2023/07/23 07:25:52;;;;;;;7.00;5.30;;;;;;;23.73;54.09;98731.30;135677;1275;22578;-81
2023/07/23 07:28:54;;;;;;;6.10;4.90;;;;;;;23.78;53.81;98727.70;135790;1275;22520;-83
2023/07/23 07:31:57;;;;;;;5.80;5.10;;;;;;;23.85;53.64;98727.44;135771;1275;22537;-84
2023/07/23 07:34:59;;;;;;;7.00;4.80;;;;;;;23.89;53.48;98728.48;135739;1275;22489;-84
2023/07/23 07:38:02;;;;;;;4.60;4.20;;;;;;;23.88;53.58;98726.40;135742;1275;22632;-85
2023/07/23 07:41:04;;;;;;;8.70;5.20;;;;;;;23.93;53.65;98725.11;135763;1274;22538;-85
2023/07/23 07:44:07;;;;;;;5.40;4.50;;;;;;;24.01;53.37;98726.71;135845;1275;22574;-88
2023/07/23 07:47:09;;;;;;;6.90;4.90;;;;;;;24.11;53.07;98717.91;135819;1254;22636;-83
2023/07/23 07:50:11;;;;;;;4.80;4.40;;;;;;;24.09;52.79;98715.14;135870;1275;22566;-85
2023/07/23 07:53:14;;;;;;;5.80;4.70;;;;;;;23.99;52.56;98714.17;135700;1274;22540;-85
2023/07/23 07:56:17;;;;;;;5.60;5.10;;;;;;;23.90;52.96;98713.89;135816;1275;22569;-84
2023/07/23 07:59:20;;;;;;;6.20;4.70;;;;;;;23.92;53.28;98714.67;135801;1272;22548;-82
2023/07/23 08:02:22;;;;;;;6.20;4.90;;;;;;;24.03;53.53;98711.16;135816;1275;22536;-85
2023/07/23 08:05:25;;;;;;;4.80;4.20;;;;;;;24.19;53.41;98707.59;135926;1274;25413;-84
2023/07/23 08:08:27;;;;;;;5.30;4.80;;;;;;;24.41;52.94;98709.13;135786;1275;24199;-84
2023/07/23 08:11:29;;;;;;;10.60;4.20;;;;;;;24.74;52.51;98707.22;135825;1274;22636;-84
2023/07/23 08:14:32;;;;;;;5.90;4.20;;;;;;;25.06;51.88;98705.70;135812;1275;22535;-85
2023/07/23 08:17:35;;;;;;;6.70;4.60;;;;;;;25.20;50.52;98703.08;135748;1275;22582;-85
2023/07/23 08:20:37;;;;;;;6.70;4.30;;;;;;;25.14;49.78;98698.01;135818;1272;22456;-83
2023/07/23 08:23:40;;;;;;;8.00;4.20;;;;;;;25.11;49.31;98693.52;135695;1275;24180;-84
2023/07/23 08:26:42;;;;;;;6.90;4.00;;;;;;;25.10;48.52;98692.12;135729;1274;22634;-82
2023/07/23 08:29:45;;;;;;;6.60;4.50;;;;;;;25.03;48.24;98689.98;135823;1275;22538;-83
2023/07/23 08:32:47;;;;;;;6.30;3.90;;;;;;;25.01;48.00;98684.20;135715;1275;23149;-83
2023/07/23 08:35:50;;;;;;;5.30;4.60;;;;;;;24.88;47.93;98680.02;135771;1275;24938;-84
2023/07/23 08:38:52;;;;;;;4.90;4.20;;;;;;;24.92;48.08;98680.19;135726;1274;24676;-83
2023/07/23 08:41:55;;;;;;;5.70;4.10;;;;;;;25.18;47.45;98672.89;135802;1275;22491;-86
2023/07/23 08:44:57;;;;;;;5.30;4.00;;;;;;;25.53;45.56;98673.09;135831;1275;23551;-85
2023/07/23 08:48:00;;;;;;;12.30;4.40;;;;;;;25.69;44.94;98673.88;135818;1274;22557;-85
2023/07/23 08:51:03;;;;;;;5.60;3.80;;;;;;;25.84;44.05;98668.24;135788;1274;24960;-84
2023/07/23 08:54:06;;;;;;;5.00;4.00;;;;;;;25.95;43.34;98661.95;135733;1275;22540;-84
2023/07/23 08:57:08;;;;;;;9.00;5.00;;;;;;;26.02;42.61;98657.84;135820;1274;22552;-84
2023/07/23 09:00:11;;;;;;;5.10;4.10;;;;;;;26.11;42.70;98655.46;135852;1274;22569;-85
2023/07/23 09:03:14;;;;;;;4.60;3.50;;;;;;;26.15;42.51;98655.56;135845;1274;23056;-84
2023/07/23 09:06:17;;;;;;;7.10;4.00;;;;;;;26.26;41.84;98649.43;135877;1251;22558;-84
2023/07/23 09:09:19;;;;;;;6.40;3.90;;;;;;;26.34;40.95;98646.33;135835;1275;22661;-85
2023/07/23 09:12:22;;;;;;;10.10;3.70;;;;;;;26.48;40.85;98644.99;135884;1275;22592;-84
2023/07/23 09:15:24;;;;;;;4.20;3.70;;;;;;;26.64;40.49;98649.64;135866;1275;22585;-86
2023/07/23 09:18:27;;;;;;;5.90;3.90;;;;;;;26.71;40.02;98646.59;135857;1274;22549;-85
2023/07/23 09:21:29;;;;;;;5.80;3.50;;;;;;;26.75;39.94;98645.98;135830;1274;22529;-83
2023/07/23 09:24:33;;;;;;;6.70;3.50;;;;;;;26.88;39.92;98643.66;135801;1274;22656;-84
2023/07/23 09:27:36;;;;;;;5.40;3.90;;;;;;;26.89;39.57;98645.23;135759;1274;22544;-84
2023/07/23 09:30:38;;;;;;;4.00;3.50;;;;;;;27.04;39.85;98641.20;136034;1274;22473;-83
2023/07/23 09:33:41;;;;;;;4.10;3.60;;;;;;;27.34;39.46;98633.14;136035;1272;22595;-84
2023/07/23 09:36:43;;;;;;;6.10;3.50;;;;;;;27.68;38.90;98633.98;136503;1275;22521;-85
2023/07/23 09:39:46;;;;;;;7.50;3.70;;;;;;;27.88;38.31;98634.70;136483;1274;22564;-83
2023/07/23 09:42:48;;;;;;;3.50;3.20;;;;;;;28.00;37.61;98626.80;136868;1274;22549;-83
2023/07/23 09:45:51;;;;;;;4.30;3.90;;;;;;;27.96;37.90;98622.26;136547;1274;22514;-84
2023/07/23 09:48:53;;;;;;;4.90;3.70;;;;;;;28.10;37.53;98621.73;136742;1275;22535;-84
2023/07/23 09:51:56;;;;;;;6.00;3.30;;;;;;;28.37;37.53;98622.34;136497;1275;22573;-85
2023/07/23 09:54:58;;;;;;;4.60;4.00;;;;;;;28.49;36.57;98616.17;136680;1274;22482;-82
2023/07/23 09:58:01;;;;;;;5.00;3.20;;;;;;;28.41;36.80;98615.66;136729;1275;22487;-83
2023/07/23 10:01:03;;;;;;;3.80;3.40;;;;;;;28.50;36.90;98613.98;136122;1274;25223;-82
2023/07/23 10:04:05;;;;;;;3.70;3.30;;;;;;;28.69;36.13;98609.92;135961;1275;22493;-82
2023/07/23 10:07:08;;;;;;;3.80;3.50;;;;;;;29.00;35.74;98600.34;136047;1275;22492;-84
2023/07/23 10:10:10;;;;;;;4.00;3.20;;;;;;;29.49;35.44;98605.48;135935;1274;22535;-85
2023/07/23 10:13:13;;;;;;;4.90;3.40;;;;;;;29.74;35.19;98600.48;135680;1263;22560;-84
2023/07/23 10:16:15;;;;;;;4.80;3.60;;;;;;;29.57;34.99;98597.73;135668;1274;22576;-84
2023/07/23 10:19:18;;;;;;;6.70;3.20;;;;;;;29.53;34.10;98601.65;135704;1275;22592;-82
2023/07/23 10:22:20;;;;;;;5.20;3.90;;;;;;;29.40;33.96;98599.79;135720;1275;22616;-82
2023/07/23 10:25:22;;;;;;;3.30;3.00;;;;;;;29.18;34.27;98595.73;135733;1274;22553;-82
2023/07/23 10:28:25;;;;;;;4.60;3.40;;;;;;;29.19;34.46;98599.57;135782;1274;22488;-84
2023/07/23 10:31:27;;;;;;;3.20;2.90;;;;;;;29.37;34.14;98603.00;135812;1275;22486;-84
2023/07/23 10:34:31;;;;;;;4.70;3.30;;;;;;;29.45;33.84;98597.14;135789;1275;22544;-84
2023/07/23 10:37:33;;;;;;;5.00;3.30;;;;;;;29.53;33.24;98593.95;135830;1274;22543;-86
2023/07/23 10:40:36;;;;;;;4.90;3.30;;;;;;;29.59;33.55;98598.73;135847;1275;22548;-84
2023/07/23 10:43:38;;;;;;;4.90;3.60;;;;;;;29.60;34.06;98596.12;136002;1274;22479;-84
2023/07/23 10:46:40;;;;;;;4.50;3.80;;;;;;;29.64;34.17;98600.11;136063;1275;21848;-83
2023/07/23 10:49:46;;;;;;;4.20;3.80;;;;;;;29.82;34.05;98592.74;135790;1275;22553;-83
2023/07/23 10:52:49;;;;;;;7.00;3.80;;;;;;;29.57;33.71;98602.62;136083;1275;24199;-83
2023/07/23 10:55:51;;;;;;;4.90;3.70;;;;;;;29.35;32.91;98607.48;135960;1275;22585;-85
2023/07/23 10:58:54;;;;;;;3.80;3.50;;;;;;;29.07;33.92;98609.20;135998;1275;22680;-83
2023/07/23 11:01:56;;;;;;;10.80;4.00;;;;;;;29.03;34.06;98607.13;135983;1275;22574;-83
2023/07/23 11:04:59;;;;;;;5.40;3.90;;;;;;;28.97;34.03;98605.90;135749;1275;25303;-84
2023/07/23 11:08:02;;;;;;;6.70;3.90;;;;;;;29.47;34.08;98595.52;135732;1275;22608;-84
2023/07/23 11:11:05;;;;;;;3.40;3.10;;;;;;;30.00;33.65;98589.53;135774;1274;25556;-84
2023/07/23 11:14:07;;;;;;;3.50;3.20;;;;;;;30.52;33.00;98582.02;135692;1275;22549;-86
2023/07/23 11:17:10;;;;;;;4.10;3.80;;;;;;;30.88;32.82;98583.83;135718;1274;22538;-85
2023/07/23 11:20:12;;;;;;;6.20;3.70;;;;;;;30.87;32.70;98582.83;135803;1275;22549;-83
2023/07/23 11:23:15;;;;;;;6.40;3.90;;;;;;;30.63;32.90;98581.01;135730;1274;22510;-84
2023/07/23 11:26:18;;;;;;;7.30;3.90;;;;;;;30.23;32.54;98581.94;135784;1274;22529;-84
2023/07/23 11:29:21;;;;;;;6.00;4.60;;;;;;;29.87;33.07;98585.98;135748;1274;25932;-85
2023/07/23 11:32:23;;;;;;;8.80;5.20;;;;;;;29.57;33.12;98582.20;135635;1275;206703;-83
2023/07/23 11:35:25;;;;;;;5.30;4.30;;;;;;;29.43;33.54;98575.91;135748;1274;24167;-84
2023/07/23 11:38:28;;;;;;;4.90;4.20;;;;;;;29.46;33.47;98573.44;135662;1274;22544;-83
2023/07/23 11:41:30;;;;;;;5.50;4.10;;;;;;;29.45;33.48;98571.11;135677;1274;22538;-84
2023/07/23 11:44:33;;;;;;;11.20;4.20;;;;;;;29.32;33.16;98570.73;135714;1275;24187;-84
2023/07/23 11:47:35;;;;;;;4.90;3.70;;;;;;;29.29;33.88;98564.00;135630;1275;22548;-84
2023/07/23 11:50:38;;;;;;;4.00;3.60;;;;;;;29.32;34.25;98558.41;135564;1274;24193;-84
2023/07/23 11:53:40;;;;;;;5.00;4.00;;;;;;;29.64;34.27;98556.00;135675;1275;22546;-83
2023/07/23 11:56:45;;;;;;;5.80;4.60;;;;;;;30.29;33.43;98553.17;135738;1274;24209;-85
2023/07/23 11:59:48;;;;;;;7.80;4.00;;;;;;;30.49;32.46;98550.83;135767;1275;22538;-85
2023/07/23 12:02:50;;;;;;;6.00;4.30;;;;;;;30.24;32.28;98544.38;135757;1275;25397;-84
2023/07/23 12:05:52;;;;;;;5.60;3.70;;;;;;;30.08;32.33;98538.36;135704;1275;22565;-84
2023/07/23 12:08:55;;;;;;;7.70;4.50;;;;;;;29.81;32.33;98536.70;135787;1275;22544;-84
2023/07/23 12:12:00;;;;;;;5.00;4.50;;;;;;;29.51;32.94;98532.55;135612;1274;24877;-83
2023/07/23 12:15:02;;;;;;;5.00;4.10;;;;;;;29.31;32.32;98528.02;135666;1275;24954;-85
2023/07/23 12:18:05;;;;;;;8.30;4.30;;;;;;;29.50;32.58;98525.06;135632;1274;22536;-82
2023/07/23 12:21:07;;;;;;;4.60;4.00;;;;;;;29.88;32.27;98522.23;135549;1275;23156;-86
2023/07/23 12:24:10;;;;;;;4.70;3.80;;;;;;;29.97;32.63;98511.67;135676;1275;22545;-82
2023/07/23 12:27:12;;;;;;;4.50;4.10;;;;;;;30.05;32.52;98514.75;135691;1275;22588;-81
2023/07/23 12:30:15;;;;;;;7.40;4.10;;;;;;;30.13;32.34;98506.02;135724;1275;22557;-83
2023/07/23 12:33:19;;;;;;;5.10;4.20;;;;;;;30.03;31.68;98501.05;135709;1275;22531;-80
2023/07/23 12:36:22;;;;;;;4.90;4.30;;;;;;;29.70;31.38;98500.92;135680;1274;25297;-81
2023/07/23 12:39:24;;;;;;;5.90;4.20;;;;;;;29.47;32.14;98492.14;135548;1274;22554;-82
2023/07/23 12:42:27;;;;;;;5.10;4.00;;;;;;;29.42;33.20;98489.91;135682;1274;25567;-82
2023/07/23 12:45:29;;;;;;;5.40;4.00;;;;;;;29.63;33.70;98491.16;135673;1275;22574;-83
2023/07/23 12:48:31;;;;;;;5.70;4.10;;;;;;;29.72;32.83;98492.68;135656;1274;22644;-82
2023/07/23 12:51:34;;;;;;;4.10;3.50;;;;;;;29.69;33.09;98484.83;135651;1275;24267;-81
2023/07/23 12:54:36;;;;;;;5.60;3.70;;;;;;;30.00;32.05;98481.73;135728;1275;22556;-81
2023/07/23 12:57:39;;;;;;;4.80;3.90;;;;;;;29.89;32.33;98482.13;135755;1275;22527;-85
2023/07/23 13:00:42;;;;;;;;;;;;;;;29.79;32.03;98474.42;135643;1275;24154;-84
2023/07/23 13:03:44;;;;;;;6.80;4.30;;;;;;;30.15;31.93;98473.77;135725;1275;25278;-87
2023/07/23 13:06:47;;;;;;;4.80;3.80;;;;;;;30.33;31.38;98472.41;135765;1274;22588;-85
2023/07/23 13:09:50;;;;;;;5.30;4.10;;;;;;;30.28;31.12;98473.21;135697;1275;25278;-86
2023/07/23 13:12:52;;;;;;;3.80;3.50;;;;;;;30.06;31.86;98468.66;135779;1274;22472;-87
2023/07/23 13:15:54;;;;;;;5.40;3.70;;;;;;;30.05;31.95;98468.43;135763;1274;22587;-86
2023/07/23 13:18:57;;;;;;;4.90;3.90;;;;;;;30.02;32.11;98463.47;135687;1275;22530;-86
2023/07/23 13:21:59;;;;;;;4.40;3.60;;;;;;;30.16;32.58;98459.74;135860;1275;22664;-84
2023/07/23 13:25:02;;;;;;;4.10;3.70;;;;;;;30.32;31.92;98454.06;135784;1275;22544;-84
2023/07/23 13:28:04;;;;;;;7.90;3.80;;;;;;;30.05;31.66;98456.42;135775;1275;22520;-85
2023/07/23 13:31:06;;;;;;;5.10;3.80;;;;;;;30.04;32.16;98455.96;135862;1275;22517;-86
2023/07/23 13:34:09;;;;;;;4.40;4.00;;;;;;;30.46;31.80;98453.39;135763;1275;22550;-85
2023/07/23 13:37:11;;;;;;;5.00;4.20;;;;;;;30.68;30.88;98452.83;135867;1275;23583;-86
2023/07/23 13:40:14;;;;;;;4.00;3.60;;;;;;;30.63;31.19;98450.30;135877;1275;22656;-86
2023/07/23 13:43:16;;;;;;;7.40;3.80;;;;;;;30.84;31.28;98445.26;135883;1275;22537;-84
2023/07/23 13:46:18;;;;;;;4.40;3.80;;;;;;;31.09;31.22;98442.80;135773;1275;22544;-84
2023/07/23 13:49:21;;;;;;;5.00;3.80;;;;;;;31.02;30.99;98447.41;135870;1275;22588;-84
2023/07/23 13:52:24;;;;;;;5.10;3.90;;;;;;;31.20;30.32;98441.80;135765;1273;22547;-82
2023/07/23 13:55:27;;;;;;;4.80;4.30;;;;;;;31.01;30.13;98438.17;135675;1275;22548;-85
2023/07/23 13:58:29;;;;;;;4.00;3.70;;;;;;;30.82;29.84;98433.55;135800;1275;22544;-84
2023/07/23 14:01:32;;;;;;;5.20;3.80;;;;;;;30.90;29.72;98432.02;135765;1274;22529;-85
2023/07/23 14:04:34;;;;;;;4.70;4.00;;;;;;;30.77;30.45;98428.02;135702;1275;22541;-85
2023/07/23 14:07:36;;;;;;;5.70;4.50;;;;;;;30.81;30.60;98433.45;135769;1275;22556;-84